createdAt,value
2017-08-07T00:00:51.770Z,0
2017-08-07T00:02:02.306Z,0
2017-08-07T00:03:12.582Z,0
2017-08-07T00:04:22.859Z,0
2017-08-07T00:05:32.517Z,0
2017-08-07T00:06:42.790Z,0
2017-08-07T00:07:53.014Z,0
2017-08-07T00:09:03.286Z,0
2017-08-07T00:10:13.600Z,0
2017-08-07T00:11:23.885Z,0
2017-08-07T00:12:34.182Z,0
2017-08-07T00:13:44.712Z,0
2017-08-07T00:14:54.663Z,0
2017-08-07T00:16:04.948Z,0
2017-08-07T00:17:14.917Z,0
2017-08-07T00:18:25.200Z,0
2017-08-07T00:19:35.422Z,0
2017-08-07T00:20:45.730Z,0
2017-08-07T00:21:55.702Z,0
2017-08-07T00:23:05.987Z,0
2017-08-07T00:24:16.254Z,0
2017-08-07T00:25:26.475Z,0
2017-08-07T00:26:36.749Z,0
2017-08-07T00:27:47.039Z,0
2017-08-07T00:28:56.709Z,0
2017-08-07T00:30:07.000Z,0
2017-08-07T00:31:17.229Z,0
2017-08-07T00:32:27.524Z,0
2017-08-07T00:33:37.483Z,0
2017-08-07T00:34:47.773Z,0
2017-08-07T00:35:58.052Z,0
2017-08-07T00:37:08.597Z,0
2017-08-07T00:38:18.872Z,0
2017-08-07T00:39:29.501Z,0
2017-08-07T00:40:39.155Z,0
2017-08-07T00:41:49.442Z,0
2017-08-07T00:42:59.984Z,0
2017-08-07T00:44:10.289Z,0
2017-08-07T00:45:20.564Z,0
2017-08-07T00:46:30.219Z,0
2017-08-07T00:47:39.867Z,0
2017-08-07T00:48:50.392Z,0
2017-08-07T00:50:00.666Z,0
2017-08-07T00:51:10.932Z,0
2017-08-07T00:52:21.203Z,0
2017-08-07T00:53:30.863Z,0
2017-08-07T00:54:41.448Z,0
2017-08-07T00:55:51.724Z,0
2017-08-07T00:57:02.013Z,0
2017-08-07T00:58:12.284Z,0
2017-08-07T00:59:22.554Z,0
2017-08-07T01:00:32.798Z,0
2017-08-07T01:01:43.085Z,0
2017-08-07T01:02:53.389Z,0
2017-08-07T01:04:03.652Z,0
2017-08-07T01:05:13.945Z,0
2017-08-07T01:06:24.203Z,0
2017-08-07T01:07:34.469Z,0
2017-08-07T01:08:44.748Z,0
2017-08-07T01:09:55.019Z,0
2017-08-07T01:11:05.296Z,0
2017-08-07T01:12:15.824Z,0
2017-08-07T01:13:26.130Z,0
2017-08-07T01:14:36.101Z,0
2017-08-07T01:15:46.084Z,0
2017-08-07T01:16:56.356Z,0
2017-08-07T01:18:06.902Z,0
2017-08-07T01:19:16.876Z,0
2017-08-07T01:20:27.149Z,0
2017-08-07T01:21:37.429Z,0
2017-08-07T01:22:47.402Z,0
2017-08-07T01:23:57.921Z,0
2017-08-07T01:25:07.890Z,0
2017-08-07T01:26:18.169Z,0
2017-08-07T01:27:27.841Z,0
2017-08-07T01:28:38.150Z,0
2017-08-07T01:29:48.689Z,0
2017-08-07T01:30:58.965Z,0
2017-08-07T01:32:09.243Z,0
2017-08-07T01:33:19.206Z,0
2017-08-07T01:34:29.485Z,0
2017-08-07T01:35:40.005Z,0
2017-08-07T01:36:49.978Z,0
2017-08-07T01:38:00.261Z,0
2017-08-07T01:39:10.229Z,0
2017-08-07T01:40:20.504Z,0
2017-08-07T01:41:30.734Z,0
2017-08-07T01:42:41.006Z,0
2017-08-07T01:43:50.977Z,0
2017-08-07T01:45:01.258Z,0
2017-08-07T01:46:11.534Z,0
2017-08-07T01:47:22.095Z,0
2017-08-07T01:48:32.390Z,0
2017-08-07T01:49:42.341Z,0
2017-08-07T01:50:52.317Z,0
2017-08-07T01:52:01.967Z,0
2017-08-07T01:53:12.490Z,0
2017-08-07T01:54:22.142Z,0
2017-08-07T01:55:32.098Z,0
2017-08-07T01:56:42.362Z,0
2017-08-07T01:57:52.646Z,0
2017-08-07T01:59:02.546Z,0
2017-08-07T02:00:12.825Z,0
2017-08-07T02:01:23.093Z,0
2017-08-07T02:02:33.064Z,0
2017-08-07T02:03:42.741Z,0
2017-08-07T02:04:53.280Z,0
2017-08-07T02:06:02.932Z,0
2017-08-07T02:07:12.591Z,0
2017-08-07T02:08:22.870Z,0
2017-08-07T02:09:33.148Z,0
2017-08-07T02:10:43.687Z,0
2017-08-07T02:11:53.652Z,0
2017-08-07T02:13:03.618Z,0
2017-08-07T02:14:13.570Z,0
2017-08-07T02:15:23.854Z,0
2017-08-07T02:16:34.629Z,0
2017-08-07T02:17:44.897Z,0
2017-08-07T02:18:55.167Z,0
2017-08-07T02:20:04.823Z,0
2017-08-07T02:21:15.096Z,0
2017-08-07T02:22:25.614Z,0
2017-08-07T02:23:35.913Z,0
2017-08-07T02:24:45.882Z,0
2017-08-07T02:25:55.541Z,0
2017-08-07T02:27:05.525Z,0
2017-08-07T02:28:16.043Z,0
2017-08-07T02:29:26.376Z,0
2017-08-07T02:30:36.902Z,0
2017-08-07T02:31:47.193Z,0
2017-08-07T02:32:57.181Z,0
2017-08-07T02:34:07.716Z,0
2017-08-07T02:35:18.001Z,0
2017-08-07T02:36:27.963Z,0
2017-08-07T02:37:38.248Z,0
2017-08-07T02:38:48.532Z,0
2017-08-07T02:39:59.055Z,0
2017-08-07T02:41:09.025Z,0
2017-08-07T02:42:19.300Z,0
2017-08-07T02:43:29.584Z,0
2017-08-07T02:44:39.867Z,0
2017-08-07T02:45:50.078Z,0
2017-08-07T02:47:00.348Z,0
2017-08-07T02:48:10.632Z,0
2017-08-07T02:49:20.918Z,0
2017-08-07T02:50:30.569Z,0
2017-08-07T02:51:41.110Z,0
2017-08-07T02:52:51.383Z,0
2017-08-07T02:54:01.360Z,0
2017-08-07T02:55:11.635Z,0
2017-08-07T02:56:21.922Z,0
2017-08-07T02:57:32.453Z,0
2017-08-07T02:58:42.717Z,0
2017-08-07T02:59:53.004Z,0
2017-08-07T03:01:02.979Z,0
2017-08-07T03:02:13.276Z,0
2017-08-07T03:03:23.822Z,0
2017-08-07T03:04:34.089Z,0
2017-08-07T03:05:44.044Z,0
2017-08-07T03:06:54.013Z,0
2017-08-07T03:08:04.286Z,0
2017-08-07T03:09:14.809Z,0
2017-08-07T03:10:25.110Z,0
2017-08-07T03:11:35.393Z,0
2017-08-07T03:12:45.679Z,0
2017-08-07T03:13:55.959Z,0
2017-08-07T03:15:05.864Z,0
2017-08-07T03:16:16.154Z,0
2017-08-07T03:17:26.438Z,0
2017-08-07T03:18:36.712Z,0
2017-08-07T03:19:47.003Z,0
2017-08-07T03:20:57.533Z,0
2017-08-07T03:22:07.182Z,0
2017-08-07T03:23:17.452Z,0
2017-08-07T03:24:27.433Z,0
2017-08-07T03:25:37.417Z,5
2017-08-07T03:26:47.983Z,5
2017-08-07T03:27:58.262Z,5
2017-08-07T03:29:08.263Z,5
2017-08-07T03:30:18.240Z,5
2017-08-07T03:31:28.517Z,10
2017-08-07T03:32:38.734Z,10
2017-08-07T03:33:48.699Z,10
2017-08-07T03:34:58.680Z,10
2017-08-07T03:36:08.963Z,15
2017-08-07T03:37:19.264Z,15
2017-08-07T03:38:29.770Z,15
2017-08-07T03:39:40.038Z,20
2017-08-07T03:40:50.003Z,20
2017-08-07T03:42:00.283Z,20
2017-08-07T03:43:10.567Z,25
2017-08-07T03:44:21.139Z,25
2017-08-07T03:45:31.421Z,30
2017-08-07T03:46:40.760Z,30
2017-08-07T03:47:50.751Z,35
2017-08-07T03:49:01.030Z,40
2017-08-07T03:50:11.573Z,40
2017-08-07T03:51:21.856Z,45
2017-08-07T03:52:32.141Z,45
2017-08-07T03:53:41.786Z,45
2017-08-07T03:54:52.055Z,50
2017-08-07T03:56:02.577Z,55
2017-08-07T03:57:12.558Z,55
2017-08-07T03:58:22.840Z,60
2017-08-07T03:59:32.796Z,60
2017-08-07T04:00:42.765Z,60
2017-08-07T04:01:53.018Z,65
2017-08-07T04:03:03.317Z,65
2017-08-07T04:04:13.281Z,70
2017-08-07T04:05:23.278Z,70
2017-08-07T04:06:33.587Z,75
2017-08-07T04:07:43.811Z,80
2017-08-07T04:08:53.786Z,80
2017-08-07T04:10:03.758Z,85
2017-08-07T04:11:13.723Z,85
2017-08-07T04:12:24.061Z,85
2017-08-07T04:13:34.313Z,90
2017-08-07T04:14:44.588Z,90
2017-08-07T04:15:54.897Z,95
2017-08-07T04:17:05.175Z,95
2017-08-07T04:18:15.151Z,100
2017-08-07T04:19:25.428Z,100
2017-08-07T04:20:35.703Z,105
2017-08-07T04:21:45.384Z,105
2017-08-07T04:22:55.658Z,110
2017-08-07T04:24:05.631Z,110
2017-08-07T04:25:16.203Z,115
2017-08-07T04:26:26.467Z,115
2017-08-07T04:27:36.771Z,120
2017-08-07T04:28:46.424Z,120
2017-08-07T04:29:56.090Z,125
2017-08-07T04:31:06.308Z,125
2017-08-07T04:32:16.277Z,130
2017-08-07T04:33:26.551Z,130
2017-08-07T04:34:36.823Z,135
2017-08-07T04:35:47.090Z,135
2017-08-07T04:36:56.981Z,140
2017-08-07T04:38:07.274Z,140
2017-08-07T04:39:17.566Z,145
2017-08-07T04:40:27.843Z,145
2017-08-07T04:41:37.805Z,150
2017-08-07T04:42:48.074Z,150
2017-08-07T04:43:58.339Z,155
2017-08-07T04:45:08.627Z,155
2017-08-07T04:46:18.278Z,160
2017-08-07T04:47:28.567Z,160
2017-08-07T04:48:38.472Z,160
2017-08-07T04:49:48.426Z,165
2017-08-07T04:50:58.377Z,165
2017-08-07T04:52:08.666Z,170
2017-08-07T04:53:18.939Z,170
2017-08-07T04:54:29.473Z,175
2017-08-07T04:55:39.445Z,175
2017-08-07T04:56:49.412Z,175
2017-08-07T04:57:59.701Z,180
2017-08-07T04:59:09.982Z,180
2017-08-07T05:00:20.196Z,185
2017-08-07T05:01:30.492Z,185
2017-08-07T05:02:40.476Z,185
2017-08-07T05:03:50.755Z,190
2017-08-07T05:05:01.029Z,190
2017-08-07T05:06:11.620Z,190
2017-08-07T05:07:21.913Z,195
2017-08-07T05:08:32.185Z,195
2017-08-07T05:09:42.157Z,200
2017-08-07T05:10:52.434Z,200
2017-08-07T05:12:02.974Z,200
2017-08-07T05:13:13.258Z,205
2017-08-07T05:14:23.534Z,205
2017-08-07T05:15:33.499Z,205
2017-08-07T05:16:43.469Z,210
2017-08-07T05:17:54.062Z,210
2017-08-07T05:19:04.344Z,210
2017-08-07T05:20:14.628Z,215
2017-08-07T05:21:24.600Z,215
2017-08-07T05:22:34.889Z,215
2017-08-07T05:23:45.421Z,220
2017-08-07T05:24:55.377Z,220
2017-08-07T05:26:05.654Z,220
2017-08-07T05:27:15.928Z,220
2017-08-07T05:28:26.226Z,225
2017-08-07T05:29:36.754Z,225
2017-08-07T05:30:47.053Z,225
2017-08-07T05:31:57.337Z,230
2017-08-07T05:33:07.621Z,230
2017-08-07T05:34:17.887Z,230
2017-08-07T05:35:28.426Z,235
2017-08-07T05:36:38.383Z,235
2017-08-07T05:37:48.664Z,235
2017-08-07T05:38:58.319Z,235
2017-08-07T05:40:08.280Z,240
2017-08-07T05:41:18.799Z,240
2017-08-07T05:42:28.446Z,240
2017-08-07T05:43:38.468Z,240
2017-08-07T05:44:48.750Z,245
2017-08-07T05:45:59.037Z,245
2017-08-07T05:47:09.499Z,245
2017-08-07T05:48:19.785Z,245
2017-08-07T05:49:29.756Z,250
2017-08-07T05:50:40.030Z,250
2017-08-07T05:51:49.995Z,250
2017-08-07T05:53:00.526Z,250
2017-08-07T05:54:10.808Z,250
2017-08-07T05:55:21.095Z,250
2017-08-07T05:56:31.389Z,250
2017-08-07T05:57:41.674Z,255
2017-08-07T05:58:52.214Z,255
2017-08-07T06:00:02.194Z,255
2017-08-07T06:01:12.151Z,260
2017-08-07T06:02:22.158Z,260
2017-08-07T06:03:32.432Z,260
2017-08-07T06:04:42.646Z,260
2017-08-07T06:05:52.921Z,260
2017-08-07T06:07:03.192Z,265
2017-08-07T06:08:13.489Z,265
2017-08-07T06:09:23.771Z,265
2017-08-07T06:10:34.298Z,265
2017-08-07T06:11:44.582Z,270
2017-08-07T06:12:54.553Z,270
2017-08-07T06:14:04.847Z,270
2017-08-07T06:15:14.802Z,270
2017-08-07T06:16:25.059Z,270
2017-08-07T06:17:35.034Z,275
2017-08-07T06:18:45.325Z,275
2017-08-07T06:19:54.676Z,275
2017-08-07T06:21:04.965Z,275
2017-08-07T06:22:15.174Z,275
2017-08-07T06:23:25.144Z,280
2017-08-07T06:24:34.798Z,280
2017-08-07T06:25:45.090Z,280
2017-08-07T06:26:55.367Z,280
2017-08-07T06:28:05.641Z,280
2017-08-07T06:29:15.617Z,285
2017-08-07T06:30:25.897Z,285
2017-08-07T06:31:36.186Z,285
2017-08-07T06:32:46.460Z,285
2017-08-07T06:33:56.998Z,285
2017-08-07T06:35:07.281Z,290
2017-08-07T06:36:17.562Z,290
2017-08-07T06:37:27.833Z,295
2017-08-07T06:38:38.127Z,295
2017-08-07T06:39:48.345Z,295
2017-08-07T06:40:58.629Z,300
2017-08-07T06:42:08.939Z,300
2017-08-07T06:43:19.214Z,300
2017-08-07T06:44:29.512Z,300
2017-08-07T06:45:40.035Z,305
2017-08-07T06:46:50.320Z,305
2017-08-07T06:48:00.288Z,305
2017-08-07T06:49:10.598Z,305
2017-08-07T06:50:20.258Z,310
2017-08-07T06:51:30.798Z,310
2017-08-07T06:52:41.095Z,310
2017-08-07T06:53:50.738Z,310
2017-08-07T06:55:00.708Z,310
2017-08-07T06:56:10.979Z,315
2017-08-07T06:57:21.536Z,315
2017-08-07T06:58:31.537Z,315
2017-08-07T06:59:41.530Z,315
2017-08-07T07:00:51.828Z,315
2017-08-07T07:02:02.122Z,320
2017-08-07T07:03:12.653Z,320
2017-08-07T07:04:22.928Z,320
2017-08-07T07:05:33.216Z,320
2017-08-07T07:06:43.505Z,320
2017-08-07T07:07:53.802Z,325
2017-08-07T07:09:04.329Z,325
2017-08-07T07:10:13.991Z,325
2017-08-07T07:11:24.275Z,325
2017-08-07T07:12:34.561Z,325
2017-08-07T07:13:44.542Z,325
2017-08-07T07:14:55.081Z,325
2017-08-07T07:16:05.376Z,330
2017-08-07T07:17:15.362Z,330
2017-08-07T07:18:25.361Z,330
2017-08-07T07:19:35.632Z,330
2017-08-07T07:20:46.163Z,335
2017-08-07T07:21:55.817Z,340
2017-08-07T07:23:05.794Z,335
2017-08-07T07:24:16.068Z,335
2017-08-07T07:25:26.033Z,335
2017-08-07T07:26:36.264Z,335
2017-08-07T07:27:46.555Z,340
2017-08-07T07:28:56.842Z,340
2017-08-07T07:30:06.812Z,340
2017-08-07T07:31:17.107Z,340
2017-08-07T07:32:27.369Z,340
2017-08-07T07:33:37.338Z,345
2017-08-07T07:34:47.619Z,345
2017-08-07T07:35:56.978Z,345
2017-08-07T07:37:07.258Z,345
2017-08-07T07:38:17.471Z,345
2017-08-07T07:39:27.743Z,345
2017-08-07T07:40:37.716Z,350
2017-08-07T07:41:48.000Z,350
2017-08-07T07:42:58.282Z,350
2017-08-07T07:44:08.825Z,350
2017-08-07T07:45:18.814Z,350
2017-08-07T07:46:28.780Z,350
2017-08-07T07:47:38.750Z,355
2017-08-07T07:48:48.729Z,355
2017-08-07T07:49:59.270Z,355
2017-08-07T07:51:08.940Z,355
2017-08-07T07:52:18.886Z,355
2017-08-07T07:53:29.167Z,355
2017-08-07T07:54:39.132Z,355
2017-08-07T07:55:49.658Z,360
2017-08-07T07:56:59.975Z,360
2017-08-07T07:58:10.255Z,360
2017-08-07T07:59:20.559Z,360
2017-08-07T08:00:30.543Z,360
2017-08-07T08:01:41.088Z,365
2017-08-07T08:02:51.072Z,365
2017-08-07T08:04:01.364Z,365
2017-08-07T08:05:11.342Z,365
2017-08-07T08:06:20.996Z,370
2017-08-07T08:07:31.533Z,365
2017-08-07T08:08:41.800Z,365
2017-08-07T08:09:51.803Z,370
2017-08-07T08:11:02.098Z,370
2017-08-07T08:12:12.073Z,370
2017-08-07T08:13:22.465Z,370
2017-08-07T08:14:32.442Z,375
2017-08-07T08:15:42.419Z,370
2017-08-07T08:16:52.693Z,375
2017-08-07T08:18:02.990Z,370
2017-08-07T08:19:13.527Z,375
2017-08-07T08:20:23.489Z,375
2017-08-07T08:21:33.153Z,375
2017-08-07T08:22:43.437Z,380
2017-08-07T08:23:53.414Z,380
2017-08-07T08:25:03.946Z,380
2017-08-07T08:26:13.918Z,385
2017-08-07T08:27:24.210Z,385
2017-08-07T08:28:34.505Z,385
2017-08-07T08:29:44.792Z,390
2017-08-07T08:30:55.328Z,390
2017-08-07T08:32:05.608Z,425
2017-08-07T08:33:15.906Z,845
2017-08-07T08:34:26.169Z,1075
2017-08-07T08:35:36.139Z,1105
2017-08-07T08:36:46.670Z,1110
2017-08-07T08:37:56.654Z,1100
2017-08-07T08:39:06.323Z,1130
2017-08-07T08:40:16.308Z,1170
2017-08-07T08:41:26.595Z,450
2017-08-07T08:42:37.139Z,445
2017-08-07T08:43:47.113Z,1200
2017-08-07T08:44:57.079Z,1230
2017-08-07T08:46:07.365Z,1305
2017-08-07T08:47:17.665Z,1345
2017-08-07T08:48:28.188Z,1220
2017-08-07T08:49:38.157Z,1120
2017-08-07T08:50:47.806Z,1345
2017-08-07T08:51:57.781Z,1240
2017-08-07T08:53:08.081Z,1100
2017-08-07T08:54:18.627Z,1465
2017-08-07T08:55:28.907Z,1310
2017-08-07T08:56:39.181Z,1295
2017-08-07T08:57:49.475Z,1400
2017-08-07T08:58:59.752Z,1410
2017-08-07T09:00:10.308Z,1465
2017-08-07T09:01:20.590Z,1470
2017-08-07T09:02:30.584Z,1425
2017-08-07T09:03:40.892Z,1440
2017-08-07T09:04:51.208Z,1540
2017-08-07T09:06:01.811Z,705
2017-08-07T09:07:12.109Z,480
2017-08-07T09:08:22.092Z,450
2017-08-07T09:09:32.368Z,460
2017-08-07T09:10:42.651Z,500
2017-08-07T09:11:53.693Z,1570
2017-08-07T09:13:03.984Z,1620
2017-08-07T09:14:14.273Z,1650
2017-08-07T09:15:24.244Z,1700
2017-08-07T09:16:34.523Z,1715
2017-08-07T09:17:44.787Z,535
2017-08-07T09:18:54.762Z,1685
2017-08-07T09:20:05.037Z,1645
2017-08-07T09:21:15.032Z,1320
2017-08-07T09:22:25.327Z,1780
2017-08-07T09:23:35.879Z,1725
2017-08-07T09:24:46.176Z,1840
2017-08-07T09:25:56.461Z,1795
2017-08-07T09:27:06.759Z,1760
2017-08-07T09:28:17.045Z,1755
2017-08-07T09:29:28.291Z,1670
2017-08-07T09:30:38.579Z,1715
2017-08-07T09:31:48.877Z,1820
2017-08-07T09:32:59.158Z,1880
2017-08-07T09:34:09.449Z,1935
2017-08-07T09:35:20.000Z,2050
2017-08-07T09:36:30.301Z,1885
2017-08-07T09:37:39.955Z,1990
2017-08-07T09:38:49.931Z,555
2017-08-07T09:40:00.230Z,575
2017-08-07T09:41:10.810Z,2090
2017-08-07T09:42:20.780Z,590
2017-08-07T09:43:31.083Z,575
2017-08-07T09:44:41.399Z,2080
2017-08-07T09:45:51.378Z,615
2017-08-07T09:47:01.597Z,590
2017-08-07T09:48:11.906Z,695
2017-08-07T09:49:21.908Z,2005
2017-08-07T09:50:32.190Z,2205
2017-08-07T09:51:42.170Z,2095
2017-08-07T09:52:52.717Z,2050
2017-08-07T09:54:02.693Z,2145
2017-08-07T09:55:12.978Z,2235
2017-08-07T09:56:22.988Z,2295
2017-08-07T09:57:33.263Z,2280
2017-08-07T09:58:43.829Z,2300
2017-08-07T09:59:53.811Z,2330
2017-08-07T10:01:04.103Z,2330
2017-08-07T10:02:14.095Z,2370
2017-08-07T10:03:24.401Z,2095
2017-08-07T10:04:34.631Z,2160
2017-08-07T10:05:44.318Z,2265
2017-08-07T10:06:54.617Z,2475
2017-08-07T10:08:04.922Z,2575
2017-08-07T10:09:15.205Z,2320
2017-08-07T10:10:25.147Z,2325
2017-08-07T10:11:35.439Z,2380
2017-08-07T10:12:45.768Z,2470
2017-08-07T10:13:56.057Z,1690
2017-08-07T10:15:06.346Z,805
2017-08-07T10:16:16.894Z,1735
2017-08-07T10:17:27.192Z,755
2017-08-07T10:18:37.491Z,2445
2017-08-07T10:19:47.494Z,760
2017-08-07T10:20:57.797Z,760
2017-08-07T10:22:08.024Z,825
2017-08-07T10:23:18.312Z,1555
2017-08-07T10:24:28.299Z,2350
2017-08-07T10:25:38.607Z,2460
2017-08-07T10:26:48.592Z,2540
2017-08-07T10:27:59.113Z,2710
2017-08-07T10:29:09.433Z,2665
2017-08-07T10:30:19.415Z,2520
2017-08-07T10:31:29.400Z,1500
2017-08-07T10:32:39.693Z,1260
2017-08-07T10:33:49.938Z,2680
2017-08-07T10:34:59.898Z,2730
2017-08-07T10:36:09.888Z,2680
2017-08-07T10:37:19.867Z,2770
2017-08-07T10:38:30.160Z,2725
2017-08-07T10:39:40.733Z,2130
2017-08-07T10:40:50.733Z,1715
2017-08-07T10:42:00.713Z,1315
2017-08-07T10:43:11.012Z,2330
2017-08-07T10:44:21.302Z,2755
2017-08-07T10:45:31.555Z,2740
2017-08-07T10:46:41.839Z,2725
2017-08-07T10:47:52.133Z,2695
2017-08-07T10:49:02.414Z,2695
2017-08-07T10:50:11.770Z,2665
2017-08-07T10:51:22.326Z,2520
2017-08-07T10:52:32.631Z,2800
2017-08-07T10:53:42.932Z,2875
2017-08-07T10:54:53.225Z,2800
2017-08-07T10:56:03.206Z,2715
2017-08-07T10:57:13.747Z,2730
2017-08-07T10:58:24.038Z,2775
2017-08-07T10:59:34.359Z,2835
2017-08-07T11:00:44.645Z,2920
2017-08-07T11:01:54.962Z,3025
2017-08-07T11:03:04.890Z,3085
2017-08-07T11:04:14.866Z,2945
2017-08-07T11:05:24.858Z,2815
2017-08-07T11:06:35.159Z,2785
2017-08-07T11:07:45.149Z,2790
2017-08-07T11:08:55.690Z,2830
2017-08-07T11:10:05.364Z,2910
2017-08-07T11:11:15.351Z,2985
2017-08-07T11:12:25.656Z,895
2017-08-07T11:13:35.983Z,850
2017-08-07T11:14:46.217Z,740
2017-08-07T11:15:56.742Z,740
2017-08-07T11:17:07.027Z,760
2017-08-07T11:18:17.326Z,795
2017-08-07T11:19:27.611Z,820
2017-08-07T11:20:37.556Z,870
2017-08-07T11:21:47.870Z,925
2017-08-07T11:22:58.165Z,910
2017-08-07T11:24:08.470Z,930
2017-08-07T11:25:18.761Z,925
2017-08-07T11:26:29.323Z,2020
2017-08-07T11:27:39.596Z,865
2017-08-07T11:28:49.879Z,970
2017-08-07T11:29:59.858Z,780
2017-08-07T11:31:10.144Z,765
2017-08-07T11:32:20.402Z,835
2017-08-07T11:33:30.379Z,1005
2017-08-07T11:34:40.682Z,3095
2017-08-07T11:35:50.960Z,3150
2017-08-07T11:37:01.265Z,3175
2017-08-07T11:38:11.532Z,3165
2017-08-07T11:39:21.823Z,3210
2017-08-07T11:40:32.124Z,3320
2017-08-07T11:41:42.103Z,3405
2017-08-07T11:42:52.392Z,3040
2017-08-07T11:44:02.931Z,935
2017-08-07T11:45:13.265Z,885
2017-08-07T11:46:23.591Z,920
2017-08-07T11:47:33.904Z,2405
2017-08-07T11:48:44.189Z,1170
2017-08-07T11:49:54.751Z,3065
2017-08-07T11:51:05.035Z,3270
2017-08-07T11:52:15.323Z,3435
2017-08-07T11:53:25.623Z,3430
2017-08-07T11:54:35.596Z,3360
2017-08-07T11:55:45.574Z,2615
2017-08-07T11:56:55.875Z,2250
2017-08-07T11:58:06.183Z,3140
2017-08-07T11:59:16.500Z,3200
2017-08-07T12:00:26.489Z,3190
2017-08-07T12:01:37.035Z,3290
2017-08-07T12:02:47.007Z,1020
2017-08-07T12:03:57.293Z,3495
2017-08-07T12:05:07.272Z,945
2017-08-07T12:06:17.570Z,770
2017-08-07T12:07:28.122Z,745
2017-08-07T12:08:38.094Z,745
2017-08-07T12:09:47.771Z,760
2017-08-07T12:10:57.453Z,815
2017-08-07T12:12:07.734Z,840
2017-08-07T12:13:18.294Z,860
2017-08-07T12:14:28.309Z,895
2017-08-07T12:15:38.586Z,1710
2017-08-07T12:16:48.877Z,3605
2017-08-07T12:17:59.179Z,3625
2017-08-07T12:19:09.448Z,3640
2017-08-07T12:20:19.740Z,3615
2017-08-07T12:21:30.041Z,3585
2017-08-07T12:22:40.345Z,3560
2017-08-07T12:23:50.629Z,3580
2017-08-07T12:25:00.859Z,3595
2017-08-07T12:26:10.537Z,3545
2017-08-07T12:27:20.834Z,1155
2017-08-07T12:28:30.832Z,2465
2017-08-07T12:29:41.122Z,2165
2017-08-07T12:30:51.358Z,3670
2017-08-07T12:32:01.342Z,3685
2017-08-07T12:33:11.628Z,3670
2017-08-07T12:34:21.621Z,3720
2017-08-07T12:35:31.934Z,1040
2017-08-07T12:36:42.480Z,1005
2017-08-07T12:37:52.494Z,970
2017-08-07T12:39:03.024Z,905
2017-08-07T12:40:13.323Z,840
2017-08-07T12:41:23.625Z,835
2017-08-07T12:42:34.174Z,3550
2017-08-07T12:43:44.467Z,3630
2017-08-07T12:44:54.775Z,3650
2017-08-07T12:46:04.774Z,3550
2017-08-07T12:47:15.057Z,3530
2017-08-07T12:48:25.609Z,3545
2017-08-07T12:49:35.913Z,3600
2017-08-07T12:50:46.227Z,3620
2017-08-07T12:51:56.522Z,3425
2017-08-07T12:53:06.501Z,3430
2017-08-07T12:54:16.476Z,3390
2017-08-07T12:55:26.778Z,3325
2017-08-07T12:56:37.125Z,3315
2017-08-07T12:57:47.109Z,3450
2017-08-07T12:58:57.100Z,3635
2017-08-07T13:00:07.648Z,3610
2017-08-07T13:01:17.635Z,3480
2017-08-07T13:02:27.626Z,3470
2017-08-07T13:03:37.946Z,3555
2017-08-07T13:04:48.239Z,3585
2017-08-07T13:05:58.827Z,3615
2017-08-07T13:07:08.828Z,3675
2017-08-07T13:08:19.153Z,3680
2017-08-07T13:09:29.450Z,3615
2017-08-07T13:10:39.724Z,3615
2017-08-07T13:11:49.971Z,3610
2017-08-07T13:13:00.268Z,3550
2017-08-07T13:14:09.965Z,3470
2017-08-07T13:15:20.267Z,3475
2017-08-07T13:16:30.573Z,3575
2017-08-07T13:17:41.124Z,3615
2017-08-07T13:18:50.783Z,3610
2017-08-07T13:20:01.076Z,3620
2017-08-07T13:21:10.739Z,3635
2017-08-07T13:22:20.440Z,3645
2017-08-07T13:23:31.047Z,3500
2017-08-07T13:24:41.042Z,3390
2017-08-07T13:25:51.045Z,3300
2017-08-07T13:27:01.352Z,3600
2017-08-07T13:28:11.658Z,3490
2017-08-07T13:29:21.882Z,3505
2017-08-07T13:30:31.871Z,2160
2017-08-07T13:31:42.162Z,2580
2017-08-07T13:32:52.155Z,3605
2017-08-07T13:34:02.478Z,3635
2017-08-07T13:35:13.071Z,3660
2017-08-07T13:36:23.052Z,3535
2017-08-07T13:37:33.050Z,3500
2017-08-07T13:38:43.351Z,3485
2017-08-07T13:39:53.650Z,3475
2017-08-07T13:41:03.868Z,3570
2017-08-07T13:42:14.198Z,1485
2017-08-07T13:43:24.494Z,3475
2017-08-07T13:44:34.479Z,2535
2017-08-07T13:45:44.796Z,3290
2017-08-07T13:46:55.343Z,3400
2017-08-07T13:48:05.631Z,3445
2017-08-07T13:49:15.914Z,3460
2017-08-07T13:50:25.927Z,3455
2017-08-07T13:51:36.231Z,3640
2017-08-07T13:52:46.778Z,3665
2017-08-07T13:53:56.773Z,3450
2017-08-07T13:55:06.751Z,3325
2017-08-07T13:56:17.061Z,3365
2017-08-07T13:57:27.365Z,3570
2017-08-07T13:58:37.280Z,3600
2017-08-07T13:59:47.588Z,3300
2017-08-07T14:00:57.568Z,2970
2017-08-07T14:02:07.894Z,2780
2017-08-07T14:03:17.888Z,930
2017-08-07T14:04:27.814Z,1200
2017-08-07T14:05:37.794Z,3260
2017-08-07T14:06:48.086Z,3480
2017-08-07T14:07:58.073Z,2275
2017-08-07T14:09:08.050Z,3360
2017-08-07T14:10:18.654Z,3405
2017-08-07T14:11:28.947Z,3355
2017-08-07T14:12:38.920Z,3300
2017-08-07T14:13:49.242Z,3220
2017-08-07T14:14:59.548Z,3225
2017-08-07T14:16:10.096Z,3355
2017-08-07T14:17:20.388Z,3350
2017-08-07T14:18:30.364Z,3365
2017-08-07T14:19:40.675Z,3270
2017-08-07T14:20:50.963Z,3310
2017-08-07T14:22:01.549Z,3310
2017-08-07T14:23:11.861Z,3200
2017-08-07T14:24:22.175Z,855
2017-08-07T14:25:32.461Z,940
2017-08-07T14:26:42.756Z,2260
2017-08-07T14:27:53.313Z,875
2017-08-07T14:29:02.977Z,1090
2017-08-07T14:30:13.285Z,1225
2017-08-07T14:31:23.591Z,865
2017-08-07T14:32:33.580Z,970
2017-08-07T14:33:43.864Z,985
2017-08-07T14:34:53.857Z,995
2017-08-07T14:36:04.141Z,1305
2017-08-07T14:37:14.441Z,3170
2017-08-07T14:38:24.747Z,2900
2017-08-07T14:39:35.036Z,3215
2017-08-07T14:40:44.709Z,3175
2017-08-07T14:41:54.670Z,3220
2017-08-07T14:43:04.966Z,3140
2017-08-07T14:44:14.952Z,3040
2017-08-07T14:45:25.602Z,3135
2017-08-07T14:46:35.591Z,3210
2017-08-07T14:47:45.601Z,3060
2017-08-07T14:48:55.877Z,2930
2017-08-07T14:50:05.880Z,2965
2017-08-07T14:51:15.795Z,3070
2017-08-07T14:52:26.089Z,3005
2017-08-07T14:53:36.090Z,3005
2017-08-07T14:54:46.358Z,2995
2017-08-07T14:55:56.374Z,2980
2017-08-07T14:57:06.967Z,2980
2017-08-07T14:58:17.257Z,3040
2017-08-07T14:59:27.232Z,3130
2017-08-07T15:00:36.895Z,3040
2017-08-07T15:01:47.190Z,2925
2017-08-07T15:02:57.778Z,2890
2017-08-07T15:04:08.069Z,2810
2017-08-07T15:05:18.358Z,2640
2017-08-07T15:06:28.374Z,2750
2017-08-07T15:07:38.664Z,2730
2017-08-07T15:08:49.208Z,2715
2017-08-07T15:09:59.517Z,2715
2017-08-07T15:11:09.827Z,2695
2017-08-07T15:12:19.806Z,2685
2017-08-07T15:13:30.098Z,2610
2017-08-07T15:14:40.691Z,2570
2017-08-07T15:15:50.990Z,2595
2017-08-07T15:17:01.280Z,2645
2017-08-07T15:18:11.562Z,2575
2017-08-07T15:19:21.869Z,2600
2017-08-07T15:20:32.184Z,2610
2017-08-07T15:21:42.164Z,2645
2017-08-07T15:22:52.153Z,2570
2017-08-07T15:24:02.127Z,2500
2017-08-07T15:25:12.416Z,2525
2017-08-07T15:26:23.020Z,2585
2017-08-07T15:27:33.339Z,2680
2017-08-07T15:28:43.637Z,2630
2017-08-07T15:29:53.928Z,2555
2017-08-07T15:31:03.919Z,2550
2017-08-07T15:32:14.480Z,2570
2017-08-07T15:33:24.791Z,2550
2017-08-07T15:34:35.091Z,2440
2017-08-07T15:35:45.074Z,2445
2017-08-07T15:36:55.352Z,1815
2017-08-07T15:38:05.974Z,2430
2017-08-07T15:39:16.262Z,2390
2017-08-07T15:40:26.572Z,2295
2017-08-07T15:41:36.855Z,2355
2017-08-07T15:42:47.160Z,2510
2017-08-07T15:43:57.752Z,2490
2017-08-07T15:45:07.756Z,2455
2017-08-07T15:46:17.735Z,2445
2017-08-07T15:47:28.011Z,2420
2017-08-07T15:48:37.995Z,2360
2017-08-07T15:49:48.605Z,2370
2017-08-07T15:50:58.898Z,2385
2017-08-07T15:52:09.192Z,2300
2017-08-07T15:53:19.498Z,2245
2017-08-07T15:54:29.479Z,2270
2017-08-07T15:55:39.772Z,2295
2017-08-07T15:56:49.781Z,2330
2017-08-07T15:58:00.064Z,2290
2017-08-07T15:59:10.357Z,2265
2017-08-07T16:00:20.364Z,2035
2017-08-07T16:01:30.924Z,2070
2017-08-07T16:02:40.919Z,2040
2017-08-07T16:03:50.911Z,2020
2017-08-07T16:05:00.901Z,1990
2017-08-07T16:06:11.200Z,1965
2017-08-07T16:07:21.499Z,1970
2017-08-07T16:08:31.788Z,2005
2017-08-07T16:09:42.103Z,2015